createdAt,value
2018-07-14T00:00:59.595Z,967.31
2018-07-14T00:01:59.599Z,967.31
2018-07-14T00:02:59.639Z,967.27
2018-07-14T00:03:59.625Z,967.25
2018-07-14T00:04:59.606Z,967.26
2018-07-14T00:05:59.654Z,967.23
2018-07-14T00:06:59.638Z,967.25
2018-07-14T00:07:59.608Z,967.23
2018-07-14T00:08:59.617Z,967.23
2018-07-14T00:09:59.660Z,967.16
2018-07-14T00:10:59.651Z,967.18
2018-07-14T00:11:59.623Z,967.20
2018-07-14T00:12:59.623Z,967.17
2018-07-14T00:13:59.623Z,967.20
2018-07-14T00:14:59.628Z,967.16
2018-07-14T00:15:59.631Z,967.19
2018-07-14T00:16:59.635Z,967.20
2018-07-14T00:17:59.635Z,967.19
2018-07-14T00:18:59.637Z,967.18
2018-07-14T00:19:59.641Z,967.19
2018-07-14T00:20:59.646Z,967.21
2018-07-14T00:21:59.641Z,967.22
2018-07-14T00:22:59.644Z,967.22
2018-07-14T00:23:59.649Z,967.22
2018-07-14T00:24:59.672Z,967.18
2018-07-14T00:25:59.651Z,967.15
2018-07-14T00:26:59.673Z,967.15
2018-07-14T00:27:59.663Z,967.16
2018-07-14T00:28:59.679Z,967.17
2018-07-14T00:29:59.660Z,967.15
2018-07-14T00:30:59.664Z,967.11
2018-07-14T00:31:59.666Z,967.09
2018-07-14T00:32:59.670Z,967.12
2018-07-14T00:33:59.669Z,967.11
2018-07-14T00:34:59.674Z,967.10
2018-07-14T00:35:59.675Z,967.06
2018-07-14T00:36:59.686Z,967.09
2018-07-14T00:37:59.713Z,967.09
2018-07-14T00:38:59.692Z,967.12
2018-07-14T00:39:59.680Z,967.09
2018-07-14T00:40:59.713Z,967.09
2018-07-14T00:41:59.686Z,967.08
2018-07-14T00:42:59.699Z,967.07
2018-07-14T00:43:59.693Z,967.10
2018-07-14T00:44:59.691Z,967.10
2018-07-14T00:45:59.693Z,967.07
2018-07-14T00:46:59.696Z,967.05
2018-07-14T00:47:59.711Z,967.05
2018-07-14T00:48:59.724Z,967.08
2018-07-14T00:49:59.726Z,967.04
2018-07-14T00:50:59.708Z,967.04
2018-07-14T00:51:59.705Z,967.05
2018-07-14T00:52:59.712Z,967.08
2018-07-14T00:53:59.726Z,967.05
2018-07-14T00:54:59.711Z,967.05
2018-07-14T00:55:59.715Z,967.06
2018-07-14T00:56:59.713Z,967.07
2018-07-14T00:57:59.722Z,967.08
2018-07-14T00:58:59.718Z,967.11
2018-07-14T00:59:59.719Z,967.09
2018-07-14T01:00:59.722Z,967.09
2018-07-14T01:01:59.782Z,967.13
2018-07-14T01:02:59.725Z,967.15
2018-07-14T01:03:59.753Z,967.14
2018-07-14T01:04:59.733Z,967.15
2018-07-14T01:05:59.734Z,967.14
2018-07-14T01:06:59.731Z,967.11
2018-07-14T01:07:59.737Z,967.11
2018-07-14T01:08:59.734Z,967.11
2018-07-14T01:09:59.769Z,967.07
2018-07-14T01:10:59.738Z,967.09
2018-07-14T01:11:59.743Z,967.11
2018-07-14T01:12:59.743Z,967.11
2018-07-14T01:13:59.748Z,967.07
2018-07-14T01:14:59.746Z,967.09
2018-07-14T01:15:59.790Z,967.06
2018-07-14T01:16:59.744Z,967.07
2018-07-14T01:17:59.754Z,967.06
2018-07-14T01:18:59.756Z,967.10
2018-07-14T01:19:59.778Z,967.07
2018-07-14T01:20:59.755Z,967.08
2018-07-14T01:21:59.803Z,967.10
2018-07-14T01:22:59.760Z,967.09
2018-07-14T01:23:59.761Z,967.05
2018-07-14T01:24:59.766Z,967.06
2018-07-14T01:25:59.799Z,967.08
2018-07-14T01:26:59.763Z,967.08
2018-07-14T01:27:59.764Z,967.07
2018-07-14T01:28:59.766Z,967.02
2018-07-14T01:29:59.762Z,967.05
2018-07-14T01:30:59.769Z,967.03
2018-07-14T01:31:59.772Z,967.02
2018-07-14T01:32:59.772Z,967.03
2018-07-14T01:33:59.774Z,967.01
2018-07-14T01:34:59.782Z,967.01
2018-07-14T01:35:59.778Z,966.99
2018-07-14T01:36:59.776Z,966.99
2018-07-14T01:37:59.781Z,967.05
2018-07-14T01:38:59.782Z,967.01
2018-07-14T01:39:59.783Z,967.02
2018-07-14T01:40:59.785Z,967.02
2018-07-14T01:41:59.789Z,967.03
2018-07-14T01:42:59.791Z,967.07
2018-07-14T01:43:59.787Z,967.04
2018-07-14T01:44:59.785Z,966.98
2018-07-14T01:45:59.792Z,967.00
2018-07-14T01:46:59.791Z,967.01
2018-07-14T01:47:59.792Z,967.00
2018-07-14T01:48:59.799Z,966.99
2018-07-14T01:49:59.818Z,966.97
2018-07-14T01:50:59.794Z,966.93
2018-07-14T01:51:59.803Z,966.97
2018-07-14T01:52:59.797Z,966.99
2018-07-14T01:53:59.796Z,966.96
2018-07-14T01:54:59.807Z,966.92
2018-07-14T01:55:59.802Z,966.93
2018-07-14T01:56:59.811Z,966.95
2018-07-14T01:57:59.813Z,966.96
2018-07-14T01:58:59.803Z,966.93
2018-07-14T01:59:59.852Z,966.94
2018-07-14T02:00:59.810Z,966.94
2018-07-14T02:01:59.814Z,966.96
2018-07-14T02:02:59.811Z,966.96
2018-07-14T02:03:59.810Z,966.96
2018-07-14T02:04:59.811Z,966.95
2018-07-14T02:05:59.816Z,966.97
2018-07-14T02:06:59.817Z,966.96
2018-07-14T02:07:59.814Z,966.94
2018-07-14T02:08:59.817Z,966.95
2018-07-14T02:09:59.825Z,966.96
2018-07-14T02:10:59.826Z,967.00
2018-07-14T02:11:59.851Z,967.02
2018-07-14T02:12:59.828Z,967.02
2018-07-14T02:13:59.821Z,967.01
2018-07-14T02:14:59.829Z,967.02
2018-07-14T02:15:59.821Z,967.00
2018-07-14T02:16:59.841Z,967.02
2018-07-14T02:17:59.826Z,967.01
2018-07-14T02:18:59.832Z,966.97
2018-07-14T02:19:59.830Z,967.00
2018-07-14T02:20:59.833Z,967.00
2018-07-14T02:21:59.847Z,967.00
2018-07-14T02:22:59.847Z,967.01
2018-07-14T02:23:59.835Z,966.99
2018-07-14T02:24:59.830Z,966.98
2018-07-14T02:25:59.833Z,966.98
2018-07-14T02:26:59.894Z,966.96
2018-07-14T02:27:59.835Z,966.96
2018-07-14T02:28:59.841Z,966.99
2018-07-14T02:29:59.837Z,966.96
2018-07-14T02:30:59.838Z,966.96
2018-07-14T02:31:59.845Z,967.00
2018-07-14T02:32:59.841Z,966.95
2018-07-14T02:33:59.858Z,966.95
2018-07-14T02:34:59.848Z,966.95
2018-07-14T02:35:59.842Z,966.95
2018-07-14T02:36:59.845Z,966.96
2018-07-14T02:37:59.842Z,966.97
2018-07-14T02:38:59.895Z,967.01
2018-07-14T02:39:59.867Z,967.04
2018-07-14T02:40:59.847Z,966.99
2018-07-14T02:41:59.847Z,967.02
2018-07-14T02:42:59.853Z,967.01
2018-07-14T02:43:59.848Z,967.00
2018-07-14T02:44:59.850Z,967.00
2018-07-14T02:45:59.858Z,967.00
2018-07-14T02:46:59.852Z,966.98
2018-07-14T02:47:59.853Z,966.97
2018-07-14T02:48:59.855Z,966.97
2018-07-14T02:49:59.853Z,967.01
2018-07-14T02:50:59.864Z,966.99
2018-07-14T02:51:59.876Z,966.99
2018-07-14T02:52:59.855Z,966.98
2018-07-14T02:53:59.904Z,967.00
2018-07-14T02:54:59.868Z,967.04
2018-07-14T02:55:59.884Z,966.98
2018-07-14T02:56:59.860Z,966.99
2018-07-14T02:57:59.860Z,967.02
2018-07-14T02:58:59.875Z,967.02
2018-07-14T02:59:59.864Z,967.03
2018-07-14T03:00:59.863Z,967.01
2018-07-14T03:01:59.864Z,967.01
2018-07-14T03:02:59.890Z,967.02
2018-07-14T03:03:59.865Z,967.01
2018-07-14T03:04:59.863Z,967.04
2018-07-14T03:05:59.890Z,967.09
2018-07-14T03:06:59.901Z,967.03
2018-07-14T03:07:59.863Z,967.09
2018-07-14T03:08:59.866Z,967.03
2018-07-14T03:09:59.894Z,967.06
2018-07-14T03:10:59.886Z,967.02
2018-07-14T03:11:59.872Z,967.04
2018-07-14T03:12:59.880Z,967.04
2018-07-14T03:13:59.873Z,967.06
2018-07-14T03:14:59.890Z,967.07
2018-07-14T03:15:59.869Z,967.09
2018-07-14T03:16:59.889Z,967.05
2018-07-14T03:17:59.875Z,967.11
2018-07-14T03:18:59.880Z,967.07
2018-07-14T03:19:59.886Z,967.06
2018-07-14T03:20:59.874Z,967.10
2018-07-14T03:21:59.891Z,967.06
2018-07-14T03:22:59.871Z,967.04
2018-07-14T03:23:59.875Z,967.09
2018-07-14T03:24:59.873Z,967.07
2018-07-14T03:25:59.977Z,967.03
2018-07-14T03:26:59.894Z,967.07
2018-07-14T03:27:59.880Z,967.07
2018-07-14T03:28:59.882Z,967.07
2018-07-14T03:29:59.910Z,967.06
2018-07-14T03:30:59.901Z,967.07
2018-07-14T03:31:59.889Z,967.09
2018-07-14T03:32:59.882Z,967.05
2018-07-14T03:34:01.432Z,967.07
2018-07-14T03:34:59.882Z,967.07
2018-07-14T03:35:59.886Z,967.07
2018-07-14T03:36:59.886Z,967.02
2018-07-14T03:37:59.898Z,967.02
2018-07-14T03:38:59.911Z,967.04
2018-07-14T03:39:59.911Z,967.07
2018-07-14T03:40:59.896Z,967.04
2018-07-14T03:41:59.954Z,967.06
2018-07-14T03:42:59.912Z,967.08
2018-07-14T03:43:59.887Z,967.03
2018-07-14T03:44:59.885Z,967.02
2018-07-14T03:45:59.886Z,967.07
2018-07-14T03:46:59.890Z,967.02
2018-07-14T03:47:59.886Z,967.02
2018-07-14T03:48:59.886Z,967.04
2018-07-14T03:49:59.890Z,967.01
2018-07-14T03:50:59.890Z,967.00
2018-07-14T03:51:59.889Z,967.01
2018-07-14T03:52:59.895Z,966.99
2018-07-14T03:53:59.897Z,967.01
2018-07-14T03:54:59.902Z,967.00
2018-07-14T03:55:59.891Z,967.02
2018-07-14T03:56:59.941Z,967.03
2018-07-14T03:57:59.888Z,967.03
2018-07-14T04:00:32.507Z,967.02
2018-07-14T04:01:32.308Z,967.03
2018-07-14T04:03:25.431Z,967.05
2018-07-14T04:04:25.322Z,967.05
2018-07-14T04:06:18.078Z,967.06
2018-07-14T04:07:18.112Z,967.05
2018-07-14T04:09:11.186Z,967.04
2018-07-14T04:10:11.192Z,967.09
2018-07-14T04:12:04.981Z,967.01
2018-07-14T04:13:04.773Z,967.04
2018-07-14T04:14:57.835Z,967.04
2018-07-14T04:15:57.669Z,967.03
2018-07-14T04:17:51.325Z,967.04
2018-07-14T04:18:51.096Z,967.08
2018-07-14T04:20:44.818Z,967.01
2018-07-14T04:21:44.512Z,967.08
2018-07-14T04:23:38.233Z,967.03
2018-07-14T04:24:38.381Z,967.07
2018-07-14T04:26:31.914Z,967.06
2018-07-14T04:27:31.705Z,967.06
2018-07-14T04:29:25.277Z,967.09
2018-07-14T04:30:24.709Z,967.08
2018-07-14T04:32:17.721Z,967.09
2018-07-14T04:33:18.181Z,967.08
2018-07-14T04:35:11.094Z,967.09
2018-07-14T04:36:10.994Z,967.08
2018-07-14T04:38:03.955Z,967.10
2018-07-14T04:39:03.837Z,967.13
2018-07-14T04:40:56.828Z,967.12
2018-07-14T04:41:56.738Z,967.14
2018-07-14T04:43:50.369Z,967.16
2018-07-14T04:44:50.111Z,967.15
2018-07-14T04:46:44.306Z,967.10
2018-07-14T04:47:43.407Z,967.10
2018-07-14T04:49:37.726Z,967.14
2018-07-14T04:50:37.038Z,967.09
2018-07-14T04:51:36.933Z,967.11
2018-07-14T04:52:36.956Z,967.09
2018-07-14T04:53:36.791Z,967.06
2018-07-14T04:54:36.815Z,967.09
2018-07-14T04:55:36.791Z,967.06
2018-07-14T04:56:36.848Z,967.08
2018-07-14T04:57:36.792Z,967.09
2018-07-14T04:58:36.799Z,967.09
2018-07-14T04:59:36.796Z,967.06
2018-07-14T05:00:36.801Z,967.11
2018-07-14T05:01:36.986Z,967.15
2018-07-14T05:02:36.803Z,967.09
2018-07-14T05:03:36.800Z,967.08
2018-07-14T05:04:36.800Z,967.10
2018-07-14T05:05:36.801Z,967.12
2018-07-14T05:06:36.808Z,967.16
2018-07-14T05:07:36.840Z,967.16
2018-07-14T05:08:36.808Z,967.17
2018-07-14T05:09:36.807Z,967.22
2018-07-14T05:10:36.815Z,967.19
2018-07-14T05:11:36.813Z,967.16
2018-07-14T05:12:36.816Z,967.19
2018-07-14T05:13:36.812Z,967.16
2018-07-14T05:14:36.815Z,967.13
2018-07-14T05:15:36.814Z,967.15
2018-07-14T05:16:36.815Z,967.16
2018-07-14T05:17:36.821Z,967.12
2018-07-14T05:18:36.817Z,967.18
2018-07-14T05:19:37.775Z,967.12
2018-07-14T05:20:36.822Z,967.13
2018-07-14T05:21:36.861Z,967.10
2018-07-14T05:22:36.834Z,967.05
2018-07-14T05:23:36.823Z,967.06
2018-07-14T05:24:36.828Z,967.08
2018-07-14T05:25:36.829Z,967.09
2018-07-14T05:26:36.848Z,967.06
2018-07-14T05:27:36.833Z,967.11
2018-07-14T05:28:36.871Z,967.10
2018-07-14T05:29:36.846Z,967.12
2018-07-14T05:30:36.845Z,967.10
2018-07-14T05:31:36.841Z,967.11
2018-07-14T05:32:36.848Z,967.13
2018-07-14T05:33:37.782Z,967.12
2018-07-14T05:34:36.854Z,967.13
2018-07-14T05:35:36.848Z,967.12
2018-07-14T05:36:36.851Z,967.17
2018-07-14T05:37:36.860Z,967.14
2018-07-14T05:38:36.854Z,967.14
2018-07-14T05:39:37.800Z,967.11
2018-07-14T05:40:36.862Z,967.15
2018-07-14T05:41:36.864Z,967.12
2018-07-14T05:42:36.862Z,967.08
2018-07-14T05:43:36.864Z,967.11
2018-07-14T05:44:36.866Z,967.11
2018-07-14T05:45:36.870Z,967.15
2018-07-14T05:46:36.886Z,967.14
2018-07-14T05:47:36.898Z,967.15
2018-07-14T05:48:36.876Z,967.18
2018-07-14T05:49:36.880Z,967.15
2018-07-14T05:50:36.882Z,967.18
2018-07-14T05:51:36.884Z,967.21
2018-07-14T05:52:36.885Z,967.23
2018-07-14T05:53:36.887Z,967.22
2018-07-14T05:54:36.893Z,967.19
2018-07-14T05:55:36.895Z,967.22
2018-07-14T05:56:36.951Z,967.23
2018-07-14T05:57:36.912Z,967.18
2018-07-14T05:58:36.905Z,967.16
2018-07-14T05:59:36.906Z,967.18
2018-07-14T06:00:36.910Z,967.20
2018-07-14T06:01:36.913Z,967.21
2018-07-14T06:02:36.916Z,967.19
2018-07-14T06:03:36.919Z,967.23
2018-07-14T06:04:36.921Z,967.27
2018-07-14T06:05:36.924Z,967.22
2018-07-14T06:06:36.930Z,967.22
2018-07-14T06:07:36.957Z,967.24
2018-07-14T06:08:36.935Z,967.23
2018-07-14T06:09:36.940Z,967.24
2018-07-14T06:10:36.942Z,967.22
2018-07-14T06:11:36.949Z,967.24
2018-07-14T06:12:36.950Z,967.24
2018-07-14T06:13:36.953Z,967.25
2018-07-14T06:14:36.959Z,967.25
2018-07-14T06:15:36.960Z,967.27
2018-07-14T06:16:36.968Z,967.25
2018-07-14T06:17:37.047Z,967.27
2018-07-14T06:18:36.971Z,967.27
2018-07-14T06:19:37.015Z,967.27
2018-07-14T06:20:36.982Z,967.29
2018-07-14T06:21:36.985Z,967.29
2018-07-14T06:22:36.988Z,967.28
2018-07-14T06:23:36.990Z,967.33
2018-07-14T06:24:36.990Z,967.33
2018-07-14T06:25:36.997Z,967.36
2018-07-14T06:26:37.001Z,967.36
2018-07-14T06:27:37.005Z,967.37
2018-07-14T06:28:37.009Z,967.37
2018-07-14T06:29:37.115Z,967.43
2018-07-14T06:30:37.020Z,967.46
2018-07-14T06:31:37.131Z,967.47
2018-07-14T06:32:37.024Z,967.49
2018-07-14T06:33:37.031Z,967.47
2018-07-14T06:34:37.037Z,967.42
2018-07-14T06:35:37.038Z,967.47
2018-07-14T06:36:37.047Z,967.52
2018-07-14T06:37:37.054Z,967.53
2018-07-14T06:38:37.136Z,967.49
2018-07-14T06:39:37.067Z,967.54
2018-07-14T06:40:37.066Z,967.55
2018-07-14T06:41:37.072Z,967.58
2018-07-14T06:42:37.079Z,967.58
2018-07-14T06:43:37.080Z,967.56
2018-07-14T06:44:37.127Z,967.57
2018-07-14T06:45:37.138Z,967.63
2018-07-14T06:46:37.099Z,967.63
2018-07-14T06:47:37.106Z,967.59
2018-07-14T06:48:37.115Z,967.60
2018-07-14T06:49:37.123Z,967.61
2018-07-14T06:50:37.797Z,967.62
2018-07-14T06:51:37.132Z,967.61
2018-07-14T06:52:37.138Z,967.58
2018-07-14T06:53:37.168Z,967.60
2018-07-14T06:54:37.154Z,967.62
2018-07-14T06:55:37.156Z,967.63
2018-07-14T06:56:37.167Z,967.65
2018-07-14T06:57:37.171Z,967.61
2018-07-14T06:58:37.180Z,967.64
2018-07-14T06:59:37.222Z,967.64
2018-07-14T07:00:37.192Z,967.64
2018-07-14T07:01:37.202Z,967.66
2018-07-14T07:02:37.208Z,967.69
2018-07-14T07:03:37.213Z,967.69
2018-07-14T07:04:37.223Z,967.69
2018-07-14T07:05:37.229Z,967.73
2018-07-14T07:06:37.235Z,967.73
2018-07-14T07:07:37.246Z,967.73
2018-07-14T07:08:37.250Z,967.77
2018-07-14T07:09:37.259Z,967.79
2018-07-14T07:10:37.265Z,967.80
2018-07-14T07:11:37.274Z,967.76
2018-07-14T07:12:37.279Z,967.71
2018-07-14T07:13:37.337Z,967.74
2018-07-14T07:14:37.304Z,967.72
2018-07-14T07:15:37.306Z,967.70
2018-07-14T07:16:37.348Z,967.77
2018-07-14T07:17:37.367Z,967.74
2018-07-14T07:18:37.337Z,967.76
2018-07-14T07:19:37.346Z,967.78
2018-07-14T07:20:37.348Z,967.74
2018-07-14T07:21:37.360Z,967.74
2018-07-14T07:22:37.368Z,967.75
2018-07-14T07:23:37.376Z,967.79
2018-07-14T07:24:37.386Z,967.75
2018-07-14T07:25:37.395Z,967.77
2018-07-14T07:26:37.406Z,967.79
2018-07-14T07:27:37.413Z,967.79
2018-07-14T07:28:37.443Z,967.79
2018-07-14T07:29:37.431Z,967.81
2018-07-14T07:30:37.444Z,967.78
2018-07-14T07:31:37.471Z,967.79
2018-07-14T07:32:37.459Z,967.82
2018-07-14T07:33:38.307Z,967.89
2018-07-14T07:34:37.814Z,967.90
2018-07-14T07:35:37.492Z,967.90
2018-07-14T07:36:37.500Z,967.91
2018-07-14T07:37:37.509Z,967.91
2018-07-14T07:38:37.520Z,967.93
2018-07-14T07:39:37.528Z,967.92
2018-07-14T07:40:37.538Z,967.96
2018-07-14T07:41:37.553Z,967.94
2018-07-14T07:42:37.561Z,967.95
2018-07-14T07:43:37.570Z,968.00
2018-07-14T07:44:37.586Z,967.97
2018-07-14T07:45:37.592Z,967.96
2018-07-14T07:46:37.602Z,967.90
2018-07-14T07:47:37.613Z,967.88
2018-07-14T07:48:37.625Z,967.85
2018-07-14T07:49:37.635Z,967.88
2018-07-14T07:50:37.646Z,967.84
2018-07-14T07:51:37.656Z,967.88
2018-07-14T07:52:37.666Z,967.86
2018-07-14T07:53:37.679Z,967.89
2018-07-14T07:54:37.690Z,967.87
2018-07-14T07:55:37.699Z,967.84
2018-07-14T07:56:37.712Z,967.85
2018-07-14T07:57:37.721Z,967.90
2018-07-14T07:58:37.737Z,967.85
2018-07-14T07:59:37.752Z,967.87
2018-07-14T08:00:37.758Z,967.88
2018-07-14T08:01:37.769Z,967.93
2018-07-14T08:02:37.786Z,967.92
2018-07-14T08:03:37.794Z,967.95
2018-07-14T08:04:37.805Z,967.94
2018-07-14T08:05:37.818Z,967.93
2018-07-14T08:06:37.829Z,967.96
2018-07-14T08:07:37.845Z,967.92
2018-07-14T08:08:37.919Z,967.91
2018-07-14T08:09:37.865Z,967.88
2018-07-14T08:10:37.877Z,967.92
2018-07-14T08:11:37.889Z,967.96
2018-07-14T08:12:37.900Z,967.93
2018-07-14T08:13:37.914Z,967.96
2018-07-14T08:14:37.926Z,967.96
2018-07-14T08:15:37.940Z,967.94
2018-07-14T08:16:37.953Z,967.93
2018-07-14T08:17:37.964Z,967.94
2018-07-14T08:18:37.977Z,967.94
2018-07-14T08:19:37.992Z,967.95
2018-07-14T08:20:38.000Z,967.93
2018-07-14T08:21:38.015Z,967.92
2018-07-14T08:22:38.087Z,967.95
2018-07-14T08:23:38.040Z,967.94
2018-07-14T08:24:38.053Z,967.94
2018-07-14T08:25:38.064Z,967.91
2018-07-14T08:26:38.080Z,967.92
2018-07-14T08:27:38.094Z,967.92
2018-07-14T08:28:38.119Z,967.95
2018-07-14T08:29:38.119Z,967.92
2018-07-14T08:30:38.131Z,967.95
2018-07-14T08:31:38.147Z,967.96
2018-07-14T08:32:38.160Z,967.95
2018-07-14T08:33:38.172Z,967.99
2018-07-14T08:34:38.186Z,967.99
2018-07-14T08:35:38.199Z,968.02
2018-07-14T08:36:38.215Z,967.95
2018-07-14T08:37:38.227Z,967.98
2018-07-14T08:38:38.242Z,967.93
2018-07-14T08:39:38.254Z,968.01
2018-07-14T08:40:38.270Z,968.01
2018-07-14T08:41:38.286Z,968.03
2018-07-14T08:42:38.296Z,968.00
2018-07-14T08:43:38.311Z,968.04
2018-07-14T08:44:38.323Z,968.04
2018-07-14T08:45:38.341Z,968.02
2018-07-14T08:46:38.354Z,968.01
2018-07-14T08:47:38.365Z,968.01
2018-07-14T08:48:38.412Z,968.00
2018-07-14T08:49:38.397Z,968.00
2018-07-14T08:50:38.409Z,967.96
2018-07-14T08:51:38.482Z,968.02
2018-07-14T08:52:38.441Z,967.99
2018-07-14T08:53:38.462Z,967.95
2018-07-14T08:54:38.465Z,967.90
2018-07-14T08:55:38.479Z,967.88
2018-07-14T08:56:38.497Z,967.90
2018-07-14T08:57:38.523Z,967.91
2018-07-14T08:58:38.522Z,967.90
2018-07-14T08:59:38.538Z,967.89
2018-07-14T09:00:38.550Z,967.87
2018-07-14T09:01:38.564Z,967.86
2018-07-14T09:02:38.577Z,967.90
2018-07-14T09:03:38.653Z,967.88
2018-07-14T09:04:38.605Z,967.85
2018-07-14T09:05:38.618Z,967.85
2018-07-14T09:06:38.636Z,967.86
2018-07-14T09:07:39.080Z,967.87
2018-07-14T09:08:39.292Z,967.87
2018-07-14T09:09:38.679Z,967.88
2018-07-14T09:10:39.843Z,967.86
2018-07-14T09:11:38.701Z,967.89
2018-07-14T09:12:38.714Z,967.84
2018-07-14T09:13:39.264Z,967.87
2018-07-14T09:14:38.740Z,967.89
2018-07-14T09:15:40.350Z,967.80
2018-07-14T09:16:38.780Z,967.77
2018-07-14T09:17:38.775Z,967.76
2018-07-14T09:18:38.797Z,967.80
2018-07-14T09:19:38.804Z,967.77
2018-07-14T09:20:38.821Z,967.77
2018-07-14T09:21:38.830Z,967.77
2018-07-14T09:22:38.845Z,967.77
2018-07-14T09:23:38.847Z,967.77
2018-07-14T09:24:38.862Z,967.82
2018-07-14T09:25:38.876Z,967.77
2018-07-14T09:26:38.886Z,967.70
2018-07-14T09:27:38.897Z,967.75
2018-07-14T09:28:39.805Z,967.73
2018-07-14T09:29:38.921Z,967.69
2018-07-14T09:30:38.936Z,967.72
2018-07-14T09:31:38.948Z,967.72
2018-07-14T09:32:39.002Z,967.74
2018-07-14T09:33:38.966Z,967.71
2018-07-14T09:34:38.976Z,967.71
2018-07-14T09:35:38.986Z,967.70
2018-07-14T09:36:38.996Z,967.68
2018-07-14T09:37:39.005Z,967.72
2018-07-14T09:38:39.021Z,967.65
2018-07-14T09:39:39.028Z,967.65
2018-07-14T09:40:39.040Z,967.64
2018-07-14T09:41:39.050Z,967.65
2018-07-14T09:42:39.082Z,967.64
2018-07-14T09:43:39.071Z,967.64
2018-07-14T09:44:39.180Z,967.61
2018-07-14T09:45:39.091Z,967.59
2018-07-14T09:46:39.100Z,967.53
2018-07-14T09:47:39.145Z,967.53
2018-07-14T09:48:39.120Z,967.52
2018-07-14T09:49:39.131Z,967.53
2018-07-14T09:50:39.140Z,967.53
2018-07-14T09:51:39.155Z,967.55
2018-07-14T09:52:39.160Z,967.52
2018-07-14T09:53:39.167Z,967.47
2018-07-14T09:54:39.179Z,967.48
2018-07-14T09:55:39.194Z,967.43
2018-07-14T09:56:39.203Z,967.40
2018-07-14T09:57:39.211Z,967.41
2018-07-14T09:58:39.219Z,967.41
2018-07-14T09:59:39.226Z,967.43
2018-07-14T10:00:39.236Z,967.46
2018-07-14T10:01:39.260Z,967.44
2018-07-14T10:02:39.282Z,967.45
2018-07-14T10:03:39.271Z,967.43
2018-07-14T10:04:39.274Z,967.45
2018-07-14T10:05:39.284Z,967.43
2018-07-14T10:06:39.319Z,967.42
2018-07-14T10:07:39.306Z,967.51
2018-07-14T10:08:39.311Z,967.52
2018-07-14T10:09:39.325Z,967.47
2018-07-14T10:10:39.333Z,967.47
2018-07-14T10:11:39.339Z,967.49
2018-07-14T10:12:39.349Z,967.49
2018-07-14T10:13:39.374Z,967.55
2018-07-14T10:14:39.378Z,967.49
2018-07-14T10:15:39.394Z,967.48
2018-07-14T10:16:39.385Z,967.46
2018-07-14T10:17:39.469Z,967.51
2018-07-14T10:18:39.413Z,967.44
2018-07-14T10:19:39.414Z,967.45
2018-07-14T10:20:39.424Z,967.48
2018-07-14T10:21:39.445Z,967.47
2018-07-14T10:22:39.457Z,967.48
2018-07-14T10:23:39.484Z,967.44
2018-07-14T10:24:39.458Z,967.40
2018-07-14T10:25:39.603Z,967.45
2018-07-14T10:26:39.477Z,967.43
2018-07-14T10:27:39.676Z,967.40
2018-07-14T10:28:39.514Z,967.42
2018-07-14T10:29:39.501Z,967.42
2018-07-14T10:30:39.518Z,967.41
2018-07-14T10:31:39.520Z,967.38
2018-07-14T10:32:39.531Z,967.37
2018-07-14T10:33:39.614Z,967.36
2018-07-14T10:34:39.550Z,967.37
2018-07-14T10:35:39.556Z,967.39
2018-07-14T10:36:39.568Z,967.39
2018-07-14T10:37:39.577Z,967.36
2018-07-14T10:38:39.646Z,967.32
2018-07-14T10:39:40.325Z,967.28
2018-07-14T10:40:39.597Z,967.29
2018-07-14T10:41:39.616Z,967.29
2018-07-14T10:42:39.626Z,967.27
2018-07-14T10:43:39.626Z,967.29
2018-07-14T10:44:39.634Z,967.28
2018-07-14T10:45:39.642Z,967.25
2018-07-14T10:46:39.671Z,967.26
2018-07-14T10:47:39.659Z,967.28
2018-07-14T10:48:39.670Z,967.25
2018-07-14T10:49:40.835Z,967.27
2018-07-14T10:50:39.717Z,967.25
2018-07-14T10:51:39.869Z,967.27
2018-07-14T10:52:39.697Z,967.30
2018-07-14T10:53:39.707Z,967.31
2018-07-14T10:54:39.959Z,967.35
2018-07-14T10:55:39.762Z,967.32
2018-07-14T10:56:39.767Z,967.27
2018-07-14T10:57:39.746Z,967.24
2018-07-14T10:58:39.752Z,967.18
2018-07-14T10:59:39.754Z,967.19
2018-07-14T11:00:39.766Z,967.18
2018-07-14T11:01:39.778Z,967.16
2018-07-14T11:02:39.787Z,967.22
2018-07-14T11:03:39.807Z,967.19
2018-07-14T11:04:39.802Z,967.17
2018-07-14T11:05:39.809Z,967.20
2018-07-14T11:06:39.821Z,967.16
2018-07-14T11:07:39.826Z,967.16
2018-07-14T11:08:39.829Z,967.16
2018-07-14T11:09:39.839Z,967.14
2018-07-14T11:10:39.848Z,967.15
2018-07-14T11:11:39.862Z,967.14
2018-07-14T11:12:39.867Z,967.13
2018-07-14T11:13:39.999Z,967.14
2018-07-14T11:14:39.883Z,967.10
2018-07-14T11:15:39.889Z,967.09
2018-07-14T11:16:42.605Z,967.05
2018-07-14T11:17:39.910Z,967.07
2018-07-14T11:18:39.920Z,967.06
2018-07-14T11:19:39.931Z,967.09
2018-07-14T11:20:39.935Z,967.09
2018-07-14T11:21:39.945Z,967.01
2018-07-14T11:22:39.954Z,967.02
2018-07-14T11:23:42.165Z,967.01
2018-07-14T11:24:40.039Z,966.98
2018-07-14T11:25:40.004Z,966.92
2018-07-14T11:26:39.989Z,966.96
2018-07-14T11:27:40.015Z,966.95
2018-07-14T11:28:40.005Z,966.98
2018-07-14T11:29:40.011Z,966.97
2018-07-14T11:30:40.017Z,966.98
2018-07-14T11:31:40.037Z,966.97
2018-07-14T11:32:40.040Z,966.95
2018-07-14T11:33:40.046Z,966.91
2018-07-14T11:34:40.099Z,966.91
2018-07-14T11:35:40.062Z,966.87
2018-07-14T11:36:40.076Z,966.82
2018-07-14T11:37:40.146Z,966.79
2018-07-14T11:38:40.093Z,966.80
2018-07-14T11:39:40.122Z,966.87
2018-07-14T11:40:40.123Z,966.80
2018-07-14T11:41:40.119Z,966.76
2018-07-14T11:42:40.381Z,966.78
2018-07-14T11:44:33.624Z,966.72
2018-07-14T11:45:33.649Z,966.77
2018-07-14T11:47:27.204Z,966.81
2018-07-14T11:48:27.124Z,966.78
2018-07-14T11:50:20.043Z,966.76
2018-07-14T11:51:20.007Z,966.79
2018-07-14T11:53:12.925Z,966.74
2018-07-14T11:54:12.964Z,966.72
2018-07-14T11:56:06.041Z,966.69
2018-07-14T11:57:06.055Z,966.69
2018-07-14T11:58:59.510Z,966.70
2018-07-14T11:59:59.563Z,966.67
2018-07-14T12:01:52.488Z,966.62
2018-07-14T12:02:52.418Z,966.58
2018-07-14T12:04:45.581Z,966.57
2018-07-14T12:05:45.590Z,966.55
2018-07-14T12:07:38.527Z,966.51
2018-07-14T12:08:38.953Z,966.49
2018-07-14T12:10:32.098Z,966.51
2018-07-14T12:11:32.080Z,966.49
2018-07-14T12:12:32.250Z,966.48
2018-07-14T12:13:33.768Z,966.49
2018-07-14T12:14:32.071Z,966.47
2018-07-14T12:15:32.173Z,966.47
2018-07-14T12:16:32.088Z,966.45
2018-07-14T12:17:32.114Z,966.44
2018-07-14T12:18:32.111Z,966.39
2018-07-14T12:19:32.118Z,966.44
2018-07-14T12:20:32.130Z,966.41
2018-07-14T12:21:32.163Z,966.36
2018-07-14T12:22:32.148Z,966.37
2018-07-14T12:23:32.154Z,966.34
2018-07-14T12:24:32.163Z,966.33
2018-07-14T12:25:32.171Z,966.30
2018-07-14T12:26:32.182Z,966.33
2018-07-14T12:27:32.195Z,966.32
2018-07-14T12:28:32.329Z,966.34
2018-07-14T12:29:34.023Z,966.32
2018-07-14T12:30:33.126Z,966.28
2018-07-14T12:31:32.859Z,966.35
2018-07-14T12:32:32.301Z,966.35
2018-07-14T12:33:33.949Z,966.29
2018-07-14T12:34:32.410Z,966.29
2018-07-14T12:35:32.280Z,966.35
2018-07-14T12:36:32.335Z,966.34
2018-07-14T12:37:32.577Z,966.34
2018-07-14T12:38:32.308Z,966.22
2018-07-14T12:39:33.029Z,966.26
2018-07-14T12:40:32.326Z,966.25
2018-07-14T12:41:32.315Z,966.24
2018-07-14T12:42:32.329Z,966.23
2018-07-14T12:43:32.418Z,966.19
2018-07-14T12:44:32.367Z,966.16
2018-07-14T12:45:32.364Z,966.18
2018-07-14T12:46:32.360Z,966.16
2018-07-14T12:47:32.367Z,966.12
2018-07-14T12:48:32.454Z,966.12
2018-07-14T12:49:32.391Z,966.07
2018-07-14T12:50:32.410Z,966.08
2018-07-14T12:51:32.419Z,966.10
2018-07-14T12:52:32.655Z,966.05
2018-07-14T12:53:32.774Z,966.07
2018-07-14T12:54:32.814Z,966.03